Aérodrome :
LOGIN :

S'inscrire | Disclaimer

   EN    FR    IT 

 










Légende :    VFR   VFR Marginal   IFR   IFR Intensif   IFR Très Intensif
Visi : 
Plafond : 
>= 8 km
>= 3000ft
5 à 8 km
1000 à 3000 ft
1500m à 5 km
500 à 1000 ft
800 à 1500m
200 à 500 ft
< 800m
< 200 ft
Symboles :   Orages  Brouillard  Fortes neiges  Fortes précipitations  Vent > 20 kt
SIGMETs :   Divers  Orages  Givrage  Turbulence  Onde Orograph.  Cendres Volcan.







- Altitude de l'aérodrome : 2096 ft
- Code IATA : AUR
- Voir les cartes d'approche


LFLW - Aurillac

DERNIER METAR :
  • 281000Z AUTO 25010KT 9999 BKN016/// BKN021/// BKN029/// ///TCU 17/14 Q1005 BECMG BKN010 OVC020

METARs EXPIRÉS :
  • 280930Z AUTO 25009KT 210V280 9999 BKN014 BKN021 BKN056 15/13 Q1005 BECMG 3000 RA
  • 280900Z AUTO 25010KT 9999 BKN011/// BKN022/// BKN036/// ///TCU 14/13 Q1005 BECMG 16006KT 3000 RA BKN010 OVC020
  • 280830Z AUTO 24007KT 9999 BKN010 BKN015 BKN027 15/14 Q1005 BECMG 3000 RA
  • 280800Z AUTO 22008KT 9999 -RA SCT009/// BKN014/// OVC037/// ///TCU 15/14 Q1005 BECMG 3000 RA BKN010 OVC020
  • 280730Z AUTO 22007KT 180V250 9999 -RA BKN008/// BKN017/// OVC033/// ///TCU 14/14 Q1005 BECMG 3000 RA BKN010 OVC020

TAF AMD TAF LFLW
Valide du 28 à 09h jusqu'au 28 à 18h UTC


280928Z 2809/2818 25010KT 9999 BKN010 OVC020
PROB40
TEMPO 2813/2815 TSRA BKN020CB
Pas de NOTAMs connus pour ce terrain.
1 SIGMET publié pour la FIR Bordeaux (LFBB) :
 
Orages noyés dans la masse
LFBB SIGMET 2 VALID 281000/281200 LFPW
LFBB BORDEAUX FIR/UIR EMBD TS FCST WI N4300 W00145 - N4615 W00130 - N4600 E00015 - N4300 W00115 - N4300 W00130 TOP FL310 MOV E 25KT NC=



MET'MAP, la Météo Aéronautique d'un coup d'oeil ! - Copyright ORBIFLY Décembre 2007 - Disclaimer

ORBIFLY MET'MAP TEAM :

Programmation & Développement : Alexandra Zaïnal
Conception & Développement : Baudouin d'Aumeries
Co-Programmation & Développement : Marc-Olivier Méhu
Soutien technique & logistique : Manuel Goepfert

Contact : metmap@orbifly.com




SOURCES & CREDITS :

   NOAA